Time;durP1;ratioP1;P1;durP2;ratioP2;P2;SDS_P1;SDS_P2;PMS_P1;PMS_P2;Temp;Humidity;BMP_temperature;BMP_pressure;BME280_temperature;BME280_humidity;BME280_pressure;Samples;Min_cycle;Max_cycle;Signal;HPM_P1;HPM_P2
2023/07/25 00:00:23;;;;;;;8.32;2.42;;;14.90;99.90;;;;;;5134847;27;20023;-75
2023/07/25 00:02:49;;;;;;;9.57;2.50;;;14.90;99.90;;;;;;5134695;27;20431;-75
2023/07/25 00:05:15;;;;;;;12.07;2.58;;;14.90;99.90;;;;;;5123571;27;20452;-75
2023/07/25 00:07:41;;;;;;;9.00;2.40;;;14.80;99.90;;;;;;5134606;27;20447;-75
2023/07/25 00:10:07;;;;;;;10.88;2.30;;;14.80;99.90;;;;;;5134318;27;20031;-75
2023/07/25 00:12:35;;;;;;;6.65;2.30;;;14.80;99.90;;;;;;5134683;27;20023;-75
2023/07/25 00:15:01;;;;;;;8.52;2.47;;;14.80;99.90;;;;;;5127052;27;20027;-75
2023/07/25 00:17:27;;;;;;;12.90;2.90;;;14.80;99.90;;;;;;5134473;27;20020;-76
2023/07/25 00:19:52;;;;;;;14.35;2.63;;;14.80;99.90;;;;;;5134759;27;20471;-75
2023/07/25 00:22:18;;;;;;;10.05;2.90;;;14.80;99.90;;;;;;5134043;27;20031;-75
2023/07/25 00:24:44;;;;;;;11.60;2.30;;;14.70;99.90;;;;;;5125900;27;20072;-75
2023/07/25 00:27:10;;;;;;;11.15;2.65;;;14.70;99.90;;;;;;5129242;27;20102;-75
2023/07/25 00:29:35;;;;;;;9.38;2.78;;;14.70;99.90;;;;;;5123024;27;20033;-75
2023/07/25 00:32:01;;;;;;;8.95;2.47;;;14.70;99.90;;;;;;5134201;27;20041;-75
2023/07/25 00:34:27;;;;;;;11.20;2.42;;;14.70;99.90;;;;;;5132994;27;20072;-76
2023/07/25 00:36:52;;;;;;;9.57;2.90;;;14.60;99.90;;;;;;5134304;27;20030;-75
2023/07/25 00:39:18;;;;;;;8.45;2.67;;;14.60;99.90;;;;;;5134200;27;20479;-75
2023/07/25 00:41:44;;;;;;;10.88;2.83;;;14.60;99.90;;;;;;5115899;28;20051;-75
2023/07/25 00:44:09;;;;;;;10.38;2.60;;;14.60;99.90;;;;;;5134379;27;20045;-75
2023/07/25 00:46:35;;;;;;;6.95;2.47;;;14.50;99.90;;;;;;5115179;28;20019;-75
2023/07/25 00:49:01;;;;;;;9.48;2.80;;;14.50;99.90;;;;;;5134553;28;20015;-75
2023/07/25 00:51:28;;;;;;;10.05;3.00;;;14.50;99.90;;;;;;5124602;28;20062;-75
2023/07/25 00:53:55;;;;;;;8.68;3.00;;;14.40;99.90;;;;;;5131167;28;20475;-74
2023/07/25 00:56:21;;;;;;;9.02;3.08;;;14.40;99.90;;;;;;5134351;28;20020;-74
2023/07/25 00:58:47;;;;;;;11.10;2.90;;;14.40;99.90;;;;;;5133937;28;20023;-76
2023/07/25 01:01:13;;;;;;;7.13;2.95;;;14.40;99.90;;;;;;5136315;27;20379;-76
2023/07/25 01:03:40;;;;;;;11.35;2.83;;;14.30;99.90;;;;;;5138153;27;20068;-76
2023/07/25 01:06:11;;;;;;;8.63;3.20;;;14.30;99.90;;;;;;5130493;27;20108;-75
2023/07/25 01:08:48;;;;;;;8.50;3.38;;;14.30;99.90;;;;;;5137305;27;20033;-76
2023/07/25 01:11:14;;;;;;;8.93;2.90;;;14.30;99.90;;;;;;5129584;27;20418;-76
2023/07/25 01:13:40;;;;;;;10.07;3.00;;;14.20;99.90;;;;;;5135010;27;20429;-76
2023/07/25 01:16:08;;;;;;;10.43;2.85;;;14.20;99.90;;;;;;5138154;27;20438;-76
2023/07/25 01:18:34;;;;;;;11.65;3.30;;;14.20;99.90;;;;;;5128570;27;20015;-76
2023/07/25 01:21:00;;;;;;;10.65;3.38;;;14.10;99.90;;;;;;5137944;27;20078;-76
2023/07/25 01:23:27;;;;;;;13.98;2.97;;;14.10;99.90;;;;;;5138006;27;20491;-76
2023/07/25 01:25:53;;;;;;;8.02;3.25;;;14.10;99.90;;;;;;5124124;27;20321;-76
2023/07/25 01:28:19;;;;;;;8.80;3.10;;;14.10;99.90;;;;;;5136345;27;20027;-76
2023/07/25 01:30:44;;;;;;;9.15;3.15;;;14.10;99.90;;;;;;5134221;27;20474;-76
2023/07/25 01:33:10;;;;;;;8.52;3.00;;;14.10;99.90;;;;;;5127525;27;20011;-76
2023/07/25 01:35:36;;;;;;;7.85;3.03;;;14.10;99.90;;;;;;5134207;27;20019;-75
2023/07/25 01:38:01;;;;;;;9.60;3.10;;;14.10;99.90;;;;;;5133171;27;20189;-76
2023/07/25 01:40:27;;;;;;;11.48;2.92;;;14.00;99.90;;;;;;5123775;27;20027;-76
2023/07/25 01:42:53;;;;;;;9.57;2.70;;;14.00;99.90;;;;;;5134651;27;20027;-75
2023/07/25 01:45:18;;;;;;;8.15;2.85;;;14.00;99.90;;;;;;5111370;27;20106;-75
2023/07/25 01:47:44;;;;;;;8.20;2.70;;;14.00;99.90;;;;;;5137087;27;20019;-75
2023/07/25 01:50:10;;;;;;;8.82;2.92;;;14.00;99.90;;;;;;5137376;27;20084;-75
2023/07/25 01:52:35;;;;;;;8.93;2.97;;;14.00;99.90;;;;;;5123433;27;20043;-75
2023/07/25 01:55:01;;;;;;;7.80;3.50;;;14.00;99.90;;;;;;5136206;27;20019;-75
2023/07/25 01:57:27;;;;;;;8.57;2.83;;;14.00;99.90;;;;;;5117482;27;20072;-75
2023/07/25 01:59:52;;;;;;;7.63;2.80;;;14.00;99.90;;;;;;5134029;27;20023;-75
2023/07/25 02:02:18;;;;;;;8.90;2.95;;;14.00;99.90;;;;;;5137240;27;20080;-76
2023/07/25 02:04:44;;;;;;;7.35;2.80;;;14.00;99.90;;;;;;5137015;27;20020;-75
2023/07/25 02:07:09;;;;;;;7.68;2.63;;;14.00;99.90;;;;;;5126608;27;20038;-75
2023/07/25 02:09:35;;;;;;;7.88;2.80;;;14.10;99.90;;;;;;5133283;27;20031;-75
2023/07/25 02:12:01;;;;;;;9.98;3.10;;;14.10;99.90;;;;;;5136466;27;20475;-75
2023/07/25 02:14:27;;;;;;;7.22;3.17;;;14.10;99.90;;;;;;5131135;27;20390;-75
2023/07/25 02:16:53;;;;;;;7.60;3.05;;;14.10;99.90;;;;;;5136628;27;20011;-75
2023/07/25 02:19:18;;;;;;;7.70;3.30;;;14.10;99.90;;;;;;5118409;27;20030;-75
2023/07/25 02:21:44;;;;;;;10.73;3.03;;;14.10;99.90;;;;;;5136989;27;20527;-75
2023/07/25 02:24:10;;;;;;;8.85;3.10;;;14.10;99.90;;;;;;5129520;27;20020;-76
2023/07/25 02:26:35;;;;;;;11.35;3.35;;;14.10;99.90;;;;;;5134306;27;20027;-75
2023/07/25 02:29:01;;;;;;;10.70;3.50;;;14.10;99.90;;;;;;5136497;27;20017;-75
2023/07/25 02:31:27;;;;;;;9.85;3.15;;;14.10;99.90;;;;;;5136752;27;20051;-76
2023/07/25 02:33:53;;;;;;;8.20;3.10;;;14.20;99.90;;;;;;5135707;27;20027;-76
2023/07/25 02:36:19;;;;;;;11.98;3.42;;;14.20;99.90;;;;;;5137112;27;20039;-76
2023/07/25 02:38:44;;;;;;;11.23;3.20;;;14.20;99.90;;;;;;5136847;27;20031;-75
2023/07/25 02:41:10;;;;;;;6.07;2.63;;;14.20;99.90;;;;;;5136458;27;20098;-75
2023/07/25 02:43:36;;;;;;;8.80;3.03;;;14.20;99.90;;;;;;5126511;27;20387;-75
2023/07/25 02:46:01;;;;;;;11.43;3.20;;;14.30;99.90;;;;;;5133531;27;20468;-75
2023/07/25 02:48:27;;;;;;;10.38;2.90;;;14.30;99.90;;;;;;5131958;27;20058;-75
2023/07/25 02:50:53;;;;;;;8.98;3.17;;;14.30;99.90;;;;;;5135793;27;20027;-75
2023/07/25 02:53:18;;;;;;;13.95;3.05;;;14.30;99.90;;;;;;5136490;27;20520;-76
2023/07/25 02:55:44;;;;;;;11.88;3.15;;;14.30;99.90;;;;;;5130140;27;20584;-75
2023/07/25 02:58:12;;;;;;;9.55;3.17;;;14.30;99.90;;;;;;5136018;27;20023;-75
2023/07/25 03:00:38;;;;;;;7.25;3.05;;;14.30;99.90;;;;;;5135968;27;20068;-75
2023/07/25 03:03:03;;;;;;;8.32;2.88;;;14.40;99.90;;;;;;5136115;27;20479;-75
2023/07/25 03:05:29;;;;;;;9.43;2.90;;;14.40;99.90;;;;;;5135487;27;20043;-76
2023/07/25 03:07:56;;;;;;;9.02;2.88;;;14.40;99.90;;;;;;5131847;27;20034;-76
2023/07/25 03:10:22;;;;;;;7.07;2.65;;;14.50;99.90;;;;;;5107359;28;20027;-75
2023/07/25 03:12:48;;;;;;;9.55;2.92;;;14.40;99.90;;;;;;5131148;27;20410;-76
2023/07/25 03:15:13;;;;;;;11.88;2.90;;;14.50;99.90;;;;;;5135359;27;20015;-76
2023/07/25 03:17:39;;;;;;;8.32;3.08;;;14.50;99.90;;;;;;5135097;27;20110;-76
2023/07/25 03:20:06;;;;;;;8.48;2.80;;;14.50;99.90;;;;;;5135508;27;20023;-75
2023/07/25 03:22:32;;;;;;;13.25;2.80;;;14.50;99.90;;;;;;5131555;27;20092;-75
2023/07/25 03:24:58;;;;;;;10.82;2.65;;;14.50;99.90;;;;;;5134977;27;20031;-75
2023/07/25 03:27:24;;;;;;;7.28;2.63;;;14.60;99.90;;;;;;5122514;27;20106;-75
2023/07/25 03:29:50;;;;;;;10.30;2.63;;;14.60;99.90;;;;;;5134958;27;20038;-75
2023/07/25 03:32:16;;;;;;;10.88;2.47;;;14.60;99.90;;;;;;5134680;27;20019;-75
2023/07/25 03:34:41;;;;;;;11.23;2.70;;;14.70;99.90;;;;;;5116401;27;20015;-75
2023/07/25 03:37:07;;;;;;;11.93;2.60;;;14.70;99.90;;;;;;5132623;27;20015;-75
2023/07/25 03:39:34;;;;;;;8.40;2.28;;;14.70;99.90;;;;;;5106625;27;20403;-75
2023/07/25 03:41:59;;;;;;;7.00;2.55;;;14.80;99.90;;;;;;5134723;27;20048;-76
2023/07/25 03:44:25;;;;;;;13.77;2.80;;;14.80;99.90;;;;;;5134657;27;20361;-75
2023/07/25 03:46:51;;;;;;;9.73;2.50;;;14.80;99.90;;;;;;5128379;27;20081;-75
2023/07/25 03:49:16;;;;;;;7.88;2.75;;;14.80;99.90;;;;;;5132239;27;20056;-75
2023/07/25 03:51:42;;;;;;;10.55;2.60;;;14.90;99.90;;;;;;5126291;27;20050;-75
2023/07/25 03:54:08;;;;;;;7.28;2.50;;;14.90;99.90;;;;;;5134197;27;20067;-75
2023/07/25 03:56:35;;;;;;;16.15;2.75;;;14.90;99.90;;;;;;5116151;27;20031;-75
2023/07/25 03:59:01;;;;;;;9.80;2.50;;;15.00;99.90;;;;;;5125722;27;20419;-75
2023/07/25 04:01:27;;;;;;;10.25;2.63;;;15.00;99.90;;;;;;5128959;27;20023;-75
2023/07/25 04:03:53;;;;;;;10.35;2.80;;;15.00;99.90;;;;;;5134836;27;20020;-75
2023/07/25 04:06:19;;;;;;;9.88;2.80;;;15.00;99.90;;;;;;5134312;27;20072;-76
2023/07/25 04:08:45;;;;;;;12.68;3.05;;;15.00;99.90;;;;;;5134211;27;20015;-75
2023/07/25 04:11:13;;;;;;;9.27;2.38;;;15.00;99.90;;;;;;5134469;27;20019;-75
2023/07/25 04:13:39;;;;;;;13.05;2.78;;;15.00;99.90;;;;;;5126458;27;20047;-75
2023/07/25 04:16:05;;;;;;;11.07;2.50;;;15.00;99.90;;;;;;5124726;27;20505;-76
2023/07/25 04:18:31;;;;;;;13.80;2.60;;;15.00;99.90;;;;;;5129639;27;20020;-75
2023/07/25 04:20:56;;;;;;;9.60;2.30;;;15.00;99.90;;;;;;5134155;27;20379;-76
2023/07/25 04:23:22;;;;;;;6.57;2.33;;;15.10;99.90;;;;;;5134347;27;20360;-76
2023/07/25 04:25:49;;;;;;;10.77;2.53;;;15.10;99.90;;;;;;5134071;27;20037;-76
2023/07/25 04:28:15;;;;;;;11.95;2.90;;;15.10;99.90;;;;;;5134221;27;20026;-75
2023/07/25 04:30:42;;;;;;;12.50;2.55;;;15.10;99.90;;;;;;5120156;27;20027;-75
2023/07/25 04:33:07;;;;;;;11.18;2.42;;;15.10;99.90;;;;;;5134493;27;20386;-75
2023/07/25 04:35:33;;;;;;;10.65;2.17;;;15.10;99.90;;;;;;5120669;27;20346;-75
2023/07/25 04:37:59;;;;;;;10.02;2.20;;;15.10;99.90;;;;;;5112557;27;20432;-76
2023/07/25 04:40:25;;;;;;;15.10;2.60;;;15.10;99.90;;;;;;5133411;27;20501;-76
2023/07/25 04:42:51;;;;;;;11.55;2.17;;;15.10;99.90;;;;;;5127856;27;20019;-76
2023/07/25 04:45:17;;;;;;;9.18;2.10;;;15.20;99.90;;;;;;5112363;28;20041;-77
2023/07/25 04:47:43;;;;;;;11.32;2.10;;;15.20;99.90;;;;;;5115344;28;20098;-76
2023/07/25 04:50:09;;;;;;;7.85;1.58;;;15.20;99.90;;;;;;5133492;28;20110;-76
2023/07/25 04:52:35;;;;;;;9.98;2.08;;;15.20;99.90;;;;;;5133327;28;20495;-76
2023/07/25 04:55:00;;;;;;;9.88;2.05;;;15.30;99.90;;;;;;5133973;28;20023;-75
2023/07/25 04:57:26;;;;;;;7.70;1.58;;;15.30;99.90;;;;;;5133909;28;20392;-76
2023/07/25 04:59:52;;;;;;;13.65;2.40;;;15.30;99.90;;;;;;5133463;28;20031;-75
2023/07/25 05:02:20;;;;;;;13.02;1.88;;;15.30;99.90;;;;;;5133499;28;20379;-76
2023/07/25 05:04:45;;;;;;;9.07;1.85;;;15.30;99.90;;;;;;5133782;28;20023;-75
2023/07/25 05:07:12;;;;;;;8.98;1.85;;;15.40;99.90;;;;;;5133806;28;20046;-75
2023/07/25 05:09:38;;;;;;;14.95;1.90;;;15.40;99.90;;;;;;5121327;28;20027;-75
2023/07/25 05:12:04;;;;;;;11.98;1.88;;;15.40;99.90;;;;;;5114484;28;20015;-74
2023/07/25 05:14:30;;;;;;;9.90;1.50;;;15.40;99.90;;;;;;5133361;28;20098;-75
2023/07/25 05:16:56;;;;;;;9.07;1.60;;;15.50;99.90;;;;;;5133350;28;20058;-74
2023/07/25 05:19:23;;;;;;;8.30;1.63;;;15.40;99.90;;;;;;5125089;28;20038;-76
2023/07/25 05:21:49;;;;;;;5.90;1.40;;;15.50;99.90;;;;;;5127958;28;20494;-75
2023/07/25 05:24:15;;;;;;;7.35;1.50;;;15.50;99.90;;;;;;5125914;28;20023;-75
2023/07/25 05:26:41;;;;;;;7.20;1.50;;;15.60;99.90;;;;;;5127844;28;20019;-75
2023/07/25 05:29:07;;;;;;;6.03;1.50;;;15.50;99.90;;;;;;5124437;28;20020;-75
2023/07/25 05:31:33;;;;;;;9.30;1.42;;;15.60;99.90;;;;;;5133588;28;20011;-76
2023/07/25 05:33:59;;;;;;;8.75;1.50;;;15.60;99.90;;;;;;5131871;28;20495;-76
2023/07/25 05:36:24;;;;;;;6.80;1.30;;;15.60;99.90;;;;;;5131513;28;20160;-76
2023/07/25 05:38:50;;;;;;;8.23;1.70;;;15.60;99.90;;;;;;5130788;28;20099;-75
2023/07/25 05:41:16;;;;;;;7.68;1.30;;;15.60;99.90;;;;;;5130596;28;20068;-75
2023/07/25 05:43:42;;;;;;;13.07;1.55;;;15.60;99.90;;;;;;5130070;28;20039;-75
2023/07/25 05:46:08;;;;;;;7.88;1.70;;;15.50;99.90;;;;;;5129351;27;20023;-75
2023/07/25 05:48:34;;;;;;;6.93;1.20;;;15.50;99.90;;;;;;5122246;27;20205;-75
2023/07/25 05:51:00;;;;;;;10.18;1.70;;;15.60;99.90;;;;;;5134016;27;20031;-75
2023/07/25 05:53:25;;;;;;;10.00;1.52;;;15.60;99.90;;;;;;5129712;27;20031;-76
2023/07/25 05:55:51;;;;;;;7.35;1.60;;;15.50;99.90;;;;;;5134256;27;20027;-74
2023/07/25 05:58:18;;;;;;;11.40;1.50;;;15.50;99.90;;;;;;5134209;27;20011;-75
2023/07/25 06:00:45;;;;;;;9.13;1.38;;;15.50;99.90;;;;;;5134026;27;20027;-75
2023/07/25 06:03:12;;;;;;;5.50;1.67;;;15.50;99.90;;;;;;5119908;27;20441;-75
2023/07/25 06:05:37;;;;;;;9.70;1.70;;;15.60;99.90;;;;;;5134170;27;20356;-75
2023/07/25 06:08:03;;;;;;;10.00;1.50;;;15.60;99.90;;;;;;5134039;27;20019;-75
2023/07/25 06:10:29;;;;;;;9.52;1.85;;;15.60;99.90;;;;;;5129564;27;20107;-75
2023/07/25 06:12:55;;;;;;;11.55;1.65;;;15.70;99.90;;;;;;5132281;27;20261;-75
2023/07/25 06:15:20;;;;;;;7.60;1.45;;;15.70;99.90;;;;;;5135142;27;20568;-75
2023/07/25 06:17:46;;;;;;;10.23;1.70;;;15.70;99.90;;;;;;5134580;27;20045;-76
2023/07/25 06:20:12;;;;;;;9.98;1.88;;;15.70;99.90;;;;;;5134559;27;20027;-75
2023/07/25 06:22:38;;;;;;;7.53;1.30;;;15.80;99.90;;;;;;5134217;27;20053;-75
2023/07/25 06:25:07;;;;;;;7.85;1.33;;;15.80;99.90;;;;;;5121381;27;20015;-75
2023/07/25 06:27:33;;;;;;;8.48;1.45;;;15.80;99.90;;;;;;5134703;27;20020;-76
2023/07/25 06:29:58;;;;;;;7.95;1.40;;;15.90;99.90;;;;;;5125256;27;20023;-75
2023/07/25 06:32:24;;;;;;;7.78;1.33;;;15.90;99.90;;;;;;5131284;27;20027;-75
2023/07/25 06:34:50;;;;;;;5.45;1.30;;;16.00;99.90;;;;;;5126154;27;20023;-75
2023/07/25 06:37:15;;;;;;;8.15;1.58;;;16.10;99.90;;;;;;5123366;27;20026;-75
2023/07/25 06:39:41;;;;;;;4.70;1.40;;;16.10;99.90;;;;;;5126201;27;20066;-75
2023/07/25 06:42:06;;;;;;;9.27;1.50;;;16.20;99.90;;;;;;5132788;27;20029;-75
2023/07/25 06:44:32;;;;;;;9.27;1.55;;;16.30;99.90;;;;;;5133178;27;20023;-75
2023/07/25 06:46:58;;;;;;;7.07;1.00;;;16.40;99.90;;;;;;5133355;27;20021;-76
2023/07/25 06:49:23;;;;;;;5.47;1.08;;;16.60;99.90;;;;;;5132386;27;20041;-76
2023/07/25 06:51:49;;;;;;;7.45;1.25;;;16.70;99.90;;;;;;5135005;27;20514;-76
2023/07/25 06:54:15;;;;;;;7.25;1.38;;;16.80;99.90;;;;;;5133856;27;20068;-76
2023/07/25 06:56:40;;;;;;;6.40;1.20;;;16.90;99.90;;;;;;5128476;27;20098;-76
2023/07/25 06:59:06;;;;;;;5.32;1.33;;;16.90;99.90;;;;;;5134503;27;20046;-76
2023/07/25 07:01:31;;;;;;;8.05;1.30;;;17.00;99.90;;;;;;5134692;27;20027;-76
2023/07/25 07:03:57;;;;;;;6.88;1.27;;;17.00;99.90;;;;;;5134910;27;20196;-76
2023/07/25 07:06:23;;;;;;;6.30;1.02;;;17.00;99.90;;;;;;5124125;27;20019;-76
2023/07/25 07:08:48;;;;;;;8.77;1.30;;;17.10;99.90;;;;;;5134041;27;20387;-76
2023/07/25 07:11:14;;;;;;;5.13;1.10;;;17.20;99.90;;;;;;5134601;27;20034;-76
2023/07/25 07:13:39;;;;;;;9.35;1.30;;;17.30;99.90;;;;;;5134433;27;20022;-76
2023/07/25 07:16:05;;;;;;;5.70;1.17;;;17.40;99.90;;;;;;5134600;27;20068;-76
2023/07/25 07:18:31;;;;;;;9.82;1.20;;;17.50;99.90;;;;;;5134407;27;20039;-76
2023/07/25 07:20:56;;;;;;;34.50;5.13;;;17.60;99.90;;;;;;5134541;27;20112;-76
2023/07/25 07:23:22;;;;;;;12.35;1.27;;;17.80;99.90;;;;;;5134478;27;20023;-76
2023/07/25 07:25:50;;;;;;;6.25;1.10;;;17.80;99.90;;;;;;5134289;27;20019;-76
2023/07/25 07:28:16;;;;;;;8.55;0.90;;;17.80;99.90;;;;;;5133905;27;20027;-76
2023/07/25 07:30:47;;;;;;;4.68;1.15;;;17.80;99.90;;;;;;5130801;27;20115;-76
2023/07/25 07:33:12;;;;;;;5.68;1.10;;;17.70;99.90;;;;;;5125075;27;20019;-76
2023/07/25 07:35:38;;;;;;;5.20;1.02;;;17.70;99.90;;;;;;5115513;27;20026;-76
2023/07/25 07:38:03;;;;;;;9.77;1.58;;;17.80;99.90;;;;;;5134318;27;20015;-76
2023/07/25 07:40:29;;;;;;;6.45;0.88;;;17.90;99.90;;;;;;5130658;27;20027;-74
2023/07/25 07:42:55;;;;;;;5.15;0.73;;;17.90;99.90;;;;;;5126165;27;20019;-75
2023/07/25 07:45:23;;;;;;;5.25;1.08;;;17.80;99.90;;;;;;5135435;27;20015;-75
2023/07/25 07:47:49;;;;;;;4.78;0.93;;;17.70;99.90;;;;;;5121267;27;20110;-75
2023/07/25 07:50:15;;;;;;;5.80;0.80;;;17.60;99.90;;;;;;5124517;27;20123;-75
2023/07/25 07:52:41;;;;;;;3.95;0.98;;;17.60;99.90;;;;;;5134013;27;20548;-76
2023/07/25 07:55:09;;;;;;;4.35;0.80;;;17.70;99.90;;;;;;5129030;27;20015;-75
2023/07/25 07:57:39;;;;;;;9.32;1.10;;;18.00;99.90;;;;;;5134791;27;20038;-75
2023/07/25 08:00:06;;;;;;;3.42;0.70;;;18.30;99.90;;;;;;5131758;27;20038;-75
2023/07/25 08:02:32;;;;;;;4.75;0.85;;;18.50;99.90;;;;;;5135014;27;20027;-75
2023/07/25 08:04:58;;;;;;;5.63;0.90;;;18.70;99.90;;;;;;5112437;28;20387;-75
2023/07/25 08:07:23;;;;;;;6.22;1.00;;;18.80;99.90;;;;;;5125600;27;20019;-76
2023/07/25 08:09:56;;;;;;;6.97;0.80;;;18.70;99.90;;;;;;5134165;27;20030;-75
2023/07/25 08:12:22;;;;;;;6.72;1.10;;;18.70;99.90;;;;;;5120552;27;20246;-75
2023/07/25 08:14:48;;;;;;;5.20;0.75;;;18.70;99.90;;;;;;5110647;28;20019;-75
2023/07/25 08:17:14;;;;;;;5.57;0.90;;;18.70;99.90;;;;;;5132941;27;20486;-76
2023/07/25 08:19:40;;;;;;;2.92;0.90;;;18.80;99.90;;;;;;5128414;27;20030;-75
2023/07/25 08:22:06;;;;;;;4.43;0.80;;;18.90;99.90;;;;;;5120108;27;20034;-75
2023/07/25 08:24:34;;;;;;;5.15;0.70;;;19.10;99.90;;;;;;5134667;27;20023;-75
2023/07/25 08:27:00;;;;;;;5.72;0.70;;;19.20;99.90;;;;;;5114067;28;20022;-75
2023/07/25 08:29:26;;;;;;;5.18;0.60;;;19.10;99.90;;;;;;5133583;27;20430;-76
2023/07/25 08:31:52;;;;;;;5.25;0.88;;;19.10;99.90;;;;;;5121862;27;20444;-75
2023/07/25 08:34:18;;;;;;;8.10;1.00;;;19.20;99.90;;;;;;5121726;27;20027;-76
2023/07/25 08:36:44;;;;;;;4.85;0.57;;;19.40;99.90;;;;;;5135020;27;20068;-75
2023/07/25 08:39:09;;;;;;;7.40;0.90;;;19.60;99.90;;;;;;5134958;27;20012;-76
2023/07/25 08:41:38;;;;;;;4.95;0.82;;;19.90;99.90;;;;;;5110979;28;20031;-75
2023/07/25 08:44:08;;;;;;;4.70;0.93;;;20.10;99.90;;;;;;5134981;27;20031;-76
2023/07/25 08:46:35;;;;;;;8.10;1.00;;;20.10;99.90;;;;;;5134073;27;20059;-75
2023/07/25 08:49:03;;;;;;;3.58;0.70;;;20.00;99.90;;;;;;5129547;27;20551;-76
2023/07/25 08:51:34;;;;;;;4.32;0.70;;;19.90;99.90;;;;;;5126510;28;20384;-75
2023/07/25 08:54:21;;;;;;;5.43;0.90;;;19.70;99.90;;;;;;5131500;28;20492;-75
2023/07/25 08:56:47;;;;;;;4.55;0.65;;;19.60;99.90;;;;;;5127633;28;20032;-75
2023/07/25 08:59:14;;;;;;;11.27;1.05;;;19.40;99.90;;;;;;5133483;28;20019;-76
2023/07/25 09:01:40;;;;;;;6.78;0.77;;;19.10;99.90;;;;;;5119163;28;20482;-76
2023/07/25 09:04:08;;;;;;;4.75;0.70;;;19.00;99.90;;;;;;5124837;28;20051;-76
2023/07/25 09:06:33;;;;;;;4.40;0.82;;;18.90;99.90;;;;;;5129050;28;20084;-76
2023/07/25 09:09:00;;;;;;;5.43;0.80;;;19.00;99.90;;;;;;5123274;28;20015;-76
2023/07/25 09:11:26;;;;;;;5.03;0.77;;;19.10;99.90;;;;;;5132433;28;20019;-76
2023/07/25 09:13:52;;;;;;;4.10;0.73;;;19.20;99.90;;;;;;5132175;28;20381;-76
2023/07/25 09:16:18;;;;;;;5.28;0.82;;;19.40;99.90;;;;;;5125263;28;20046;-76
2023/07/25 09:18:43;;;;;;;7.05;0.88;;;19.50;99.90;;;;;;5126230;28;20046;-76
2023/07/25 09:21:11;;;;;;;4.55;0.80;;;19.60;99.90;;;;;;5127889;27;20020;-76
2023/07/25 09:23:37;;;;;;;2.33;0.80;;;19.50;99.90;;;;;;5136884;27;20471;-76
2023/07/25 09:26:10;;;;;;;4.15;0.90;;;19.60;99.90;;;;;;5136832;27;20047;-76
2023/07/25 09:28:46;;;;;;;3.03;0.85;;;19.60;99.90;;;;;;5137024;27;20483;-76
2023/07/25 09:31:12;;;;;;;2.35;0.65;;;19.70;99.90;;;;;;5135597;27;20015;-76
2023/07/25 09:33:38;;;;;;;5.05;0.70;;;19.80;99.90;;;;;;5134987;27;20515;-76
2023/07/25 09:36:05;;;;;;;4.72;0.70;;;20.00;99.50;;;;;;5134424;27;20019;-76
2023/07/25 09:38:32;;;;;;;2.97;0.82;;;20.30;98.90;;;;;;5135039;27;20019;-76
2023/07/25 09:40:58;;;;;;;3.60;0.80;;;20.50;98.60;;;;;;5119653;27;20028;-76
2023/07/25 09:43:28;;;;;;;4.22;0.80;;;20.50;97.60;;;;;;5118381;27;20510;-76
2023/07/25 09:45:54;;;;;;;5.82;0.90;;;20.40;97.80;;;;;;5115999;27;20474;-77
2023/07/25 09:48:21;;;;;;;3.53;0.65;;;20.30;98.00;;;;;;5134608;27;20019;-77
2023/07/25 09:50:47;;;;;;;4.20;0.80;;;20.10;98.00;;;;;;5122841;27;20020;-76
2023/07/25 09:53:14;;;;;;;7.75;0.80;;;20.00;98.60;;;;;;5125927;27;20046;-75
2023/07/25 09:55:40;;;;;;;5.45;0.75;;;19.90;98.20;;;;;;5129142;27;20023;-76
2023/07/25 09:58:06;;;;;;;3.22;0.80;;;19.80;97.80;;;;;;5134379;27;20227;-75
2023/07/25 10:00:32;;;;;;;2.47;0.60;;;19.80;97.70;;;;;;5134414;27;20474;-75
2023/07/25 10:02:59;;;;;;;2.30;0.98;;;19.70;98.20;;;;;;5134894;27;20065;-75
2023/07/25 10:05:28;;;;;;;2.72;0.70;;;19.70;98.30;;;;;;5134164;27;20019;-76
2023/07/25 10:07:56;;;;;;;3.28;0.98;;;19.80;98.40;;;;;;5134227;27;20062;-75
2023/07/25 10:10:22;;;;;;;4.28;0.80;;;19.90;98.50;;;;;;5120871;27;20030;-76
2023/07/25 10:12:48;;;;;;;5.50;0.80;;;19.90;98.40;;;;;;5129595;27;20031;-75
2023/07/25 10:15:15;;;;;;;5.15;1.10;;;19.90;98.60;;;;;;5124329;27;20018;-75
2023/07/25 10:17:40;;;;;;;3.78;0.82;;;20.00;98.40;;;;;;5128973;27;20012;-75
2023/07/25 10:20:07;;;;;;;2.55;0.70;;;20.00;97.90;;;;;;5135084;27;20102;-76
2023/07/25 10:22:34;;;;;;;4.80;1.00;;;20.00;97.00;;;;;;5134626;27;20076;-76
2023/07/25 10:25:00;;;;;;;5.95;0.60;;;20.10;97.30;;;;;;5127007;27;20043;-76
2023/07/25 10:27:26;;;;;;;4.93;0.70;;;20.30;96.90;;;;;;5128534;27;20027;-77
2023/07/25 10:29:51;;;;;;;4.03;0.68;;;20.40;96.70;;;;;;5135612;27;20027;-76
2023/07/25 10:32:41;;;;;;;0.93;0.43;;;20.40;96.30;;;;;;5134437;27;20483;-76
2023/07/25 10:35:07;;;;;;;3.10;0.60;;;20.40;95.50;;;;;;5121461;27;20023;-76
2023/07/25 10:37:38;;;;;;;5.68;0.70;;;20.20;95.00;;;;;;5132811;27;20379;-76
2023/07/25 10:40:14;;;;;;;2.58;0.63;;;20.30;95.50;;;;;;5123159;27;20359;-76
2023/07/25 10:42:52;;;;;;;4.57;0.63;;;20.50;95.70;;;;;;5127480;27;20411;-76
2023/07/25 10:45:29;;;;;;;6.45;0.73;;;20.70;95.80;;;;;;5129236;27;20395;-76
2023/07/25 10:47:58;;;;;;;3.28;0.57;;;21.10;95.60;;;;;;5133225;27;20019;-76
2023/07/25 10:50:27;;;;;;;4.38;0.65;;;21.30;92.80;;;;;;5114648;27;20023;-76
2023/07/25 10:52:53;;;;;;;6.43;0.60;;;21.30;92.50;;;;;;5132900;27;20376;-76
2023/07/25 10:55:19;;;;;;;1.90;0.70;;;21.20;93.10;;;;;;5133330;27;20015;-76
2023/07/25 10:58:11;;;;;;;4.18;0.73;;;21.10;93.90;;;;;;5124031;27;20280;-76
2023/07/25 11:00:38;;;;;;;4.40;0.70;;;21.00;95.00;;;;;;5111439;27;20114;-76
2023/07/25 11:03:29;;;;;;;3.10;0.70;;;21.10;95.10;;;;;;5126448;27;20015;-75
2023/07/25 11:06:10;;;;;;;3.53;0.82;;;21.30;94.70;;;;;;5108224;27;20027;-76
2023/07/25 11:08:40;;;;;;;4.38;0.75;;;21.50;94.40;;;;;;5128147;27;20031;-75
2023/07/25 11:11:12;;;;;;;3.22;0.50;;;21.60;93.80;;;;;;5128831;27;20031;-76
2023/07/25 11:13:39;;;;;;;2.65;0.50;;;21.30;93.90;;;;;;5124529;27;20545;-75
2023/07/25 11:16:06;;;;;;;3.30;0.68;;;21.10;93.50;;;;;;5130215;27;20392;-76
2023/07/25 11:18:39;;;;;;;1.92;0.47;;;21.00;93.90;;;;;;5128171;27;20027;-75
2023/07/25 11:21:07;;;;;;;3.22;0.70;;;21.00;93.60;;;;;;5128706;27;20055;-75
2023/07/25 11:23:33;;;;;;;2.90;0.70;;;21.10;93.60;;;;;;5132827;27;20035;-76
2023/07/25 11:26:03;;;;;;;3.25;0.50;;;21.00;93.70;;;;;;5133027;27;20019;-76
2023/07/25 11:28:29;;;;;;;2.78;0.50;;;21.00;93.60;;;;;;5132898;27;20038;-76
2023/07/25 11:30:58;;;;;;;3.22;0.80;;;21.00;93.40;;;;;;5132750;27;20057;-75
2023/07/25 11:33:24;;;;;;;6.00;0.80;;;20.90;92.90;;;;;;5120809;27;20485;-76
2023/07/25 11:35:57;;;;;;;1.90;0.70;;;20.90;93.60;;;;;;5132370;27;20022;-76
2023/07/25 11:38:23;;;;;;;2.40;0.73;;;21.10;93.90;;;;;;5133634;27;20015;-76
2023/07/25 11:40:51;;;;;;;1.42;0.52;;;21.40;93.10;;;;;;5131787;27;20023;-76
2023/07/25 11:43:17;;;;;;;1.00;0.50;;;21.50;92.40;;;;;;5119979;27;20076;-76
2023/07/25 11:45:45;;;;;;;1.15;0.40;;;21.50;92.20;;;;;;5132166;27;20085;-76
2023/07/25 11:48:13;;;;;;;3.28;0.68;;;21.50;90.40;;;;;;5128324;27;20064;-76
2023/07/25 11:50:42;;;;;;;1.40;0.50;;;21.50;88.50;;;;;;5123608;27;20543;-76
2023/07/25 11:53:09;;;;;;;2.88;0.50;;;21.60;88.20;;;;;;5133935;27;20035;-76
2023/07/25 11:55:35;;;;;;;2.65;0.60;;;21.60;88.70;;;;;;5133886;27;20023;-76
2023/07/25 11:58:02;;;;;;;1.60;0.52;;;21.70;89.10;;;;;;5133684;27;20409;-76
2023/07/25 12:00:39;;;;;;;2.72;0.70;;;21.70;89.20;;;;;;5133746;27;20019;-76
2023/07/25 12:03:19;;;;;;;1.88;0.55;;;21.80;90.70;;;;;;5133871;27;20019;-76
2023/07/25 12:05:58;;;;;;;3.28;0.73;;;21.90;90.50;;;;;;5116096;27;20544;-76
2023/07/25 12:08:39;;;;;;;2.72;0.68;;;22.00;90.30;;;;;;5132569;27;20099;-76
2023/07/25 12:11:07;;;;;;;2.85;0.50;;;22.10;89.40;;;;;;5133593;27;20507;-76
2023/07/25 12:13:44;;;;;;;1.50;0.40;;;22.00;89.30;;;;;;5115338;27;20265;-76
2023/07/25 12:16:27;;;;;;;1.48;0.50;;;22.10;89.00;;;;;;5133465;27;20014;-76
2023/07/25 12:18:58;;;;;;;1.38;0.50;;;22.30;86.80;;;;;;5133527;27;20015;-76
2023/07/25 12:21:29;;;;;;;3.40;0.50;;;22.30;86.00;;;;;;5129063;27;20399;-76
2023/07/25 12:23:57;;;;;;;2.80;0.77;;;22.20;86.70;;;;;;5133221;27;20011;-76
2023/07/25 12:26:22;;;;;;;2.90;0.60;;;22.20;86.60;;;;;;5131255;27;20022;-76
2023/07/25 12:28:49;;;;;;;4.28;0.60;;;22.30;86.40;;;;;;5132884;27;20019;-76
2023/07/25 12:31:15;;;;;;;2.53;0.65;;;22.20;86.00;;;;;;5124785;27;20487;-76
2023/07/25 12:33:45;;;;;;;5.70;0.60;;;22.30;86.40;;;;;;5127974;27;20030;-77
2023/07/25 12:36:11;;;;;;;2.67;0.80;;;22.40;85.10;;;;;;5121498;27;20098;-77
2023/07/25 12:38:37;;;;;;;2.70;0.60;;;22.40;85.30;;;;;;5114870;27;20111;-76
2023/07/25 12:41:03;;;;;;;2.15;0.70;;;22.30;84.40;;;;;;5133856;27;20055;-76
2023/07/25 12:43:29;;;;;;;2.40;0.70;;;22.40;85.00;;;;;;5132668;27;20113;-75